createdAt,value
2018-05-31T00:01:02.881Z,12.33
2018-05-31T00:03:31.015Z,12.77
2018-05-31T00:05:59.121Z,14.97
2018-05-31T00:08:27.387Z,13.93
2018-05-31T00:10:55.567Z,17.73
2018-05-31T00:13:23.673Z,13.03
2018-05-31T00:15:51.857Z,17.70
2018-05-31T00:18:20.000Z,13.77
2018-05-31T00:20:48.125Z,14.63
2018-05-31T00:23:16.309Z,12.87
2018-05-31T00:25:44.459Z,12.63
2018-05-31T00:28:12.679Z,13.07
2018-05-31T00:30:40.931Z,12.53
2018-05-31T00:33:09.047Z,12.00
2018-05-31T00:35:37.272Z,12.80
2018-05-31T00:38:05.382Z,13.67
2018-05-31T00:40:33.533Z,13.00
2018-05-31T00:43:01.645Z,13.33
2018-05-31T00:45:29.781Z,14.67
2018-05-31T00:47:58.060Z,13.70
2018-05-31T00:50:26.211Z,13.60
2018-05-31T00:52:54.526Z,14.10
2018-05-31T00:55:34.788Z,16.93
2018-05-31T00:58:02.915Z,15.23
2018-05-31T01:00:31.296Z,15.80
2018-05-31T01:02:59.447Z,16.23
2018-05-31T01:05:27.556Z,14.73
2018-05-31T01:07:55.699Z,13.87
2018-05-31T01:10:23.791Z,15.23
2018-05-31T01:12:51.924Z,15.73
2018-05-31T01:15:20.061Z,14.60
2018-05-31T01:17:48.219Z,14.43
2018-05-31T01:20:16.358Z,15.10
2018-05-31T01:22:44.534Z,16.53
2018-05-31T01:25:12.684Z,15.53
2018-05-31T01:27:40.811Z,14.70
2018-05-31T01:30:08.919Z,15.63
2018-05-31T01:32:37.185Z,15.57
2018-05-31T01:35:05.563Z,15.17
2018-05-31T01:37:33.656Z,16.67
2018-05-31T01:40:01.981Z,16.30
2018-05-31T01:42:30.163Z,13.57
2018-05-31T01:44:58.268Z,16.83
2018-05-31T01:47:26.391Z,16.37
2018-05-31T01:49:54.521Z,15.27
2018-05-31T01:52:22.731Z,14.70
2018-05-31T01:54:51.032Z,15.33
2018-05-31T01:57:19.186Z,15.93
2018-05-31T01:59:47.355Z,16.27
2018-05-31T02:02:15.481Z,16.47
2018-05-31T02:04:43.569Z,16.53
2018-05-31T02:07:11.696Z,18.20
2018-05-31T02:09:39.840Z,16.83
2018-05-31T02:12:08.150Z,16.10
2018-05-31T02:14:36.274Z,16.73
2018-05-31T02:17:04.576Z,18.83
2018-05-31T02:19:32.872Z,18.77
2018-05-31T02:22:01.054Z,18.70
2018-05-31T02:24:29.182Z,19.33
2018-05-31T02:26:57.281Z,17.83
2018-05-31T02:29:25.548Z,19.07
2018-05-31T02:31:53.638Z,18.80
2018-05-31T02:34:21.720Z,18.30
2018-05-31T02:36:49.818Z,17.83
2018-05-31T02:39:17.900Z,20.27
2018-05-31T02:41:46.160Z,22.13
2018-05-31T02:44:14.237Z,18.30
2018-05-31T02:46:42.321Z,19.23
2018-05-31T02:49:10.580Z,19.07
2018-05-31T02:51:38.668Z,18.17
2018-05-31T02:54:06.820Z,18.50
2018-05-31T02:56:34.890Z,21.93
2018-05-31T02:59:03.235Z,17.70
2018-05-31T03:01:31.353Z,20.63
2018-05-31T03:03:59.475Z,21.63
2018-05-31T03:06:27.568Z,20.17
2018-05-31T03:08:55.856Z,21.87
2018-05-31T03:11:24.075Z,21.93
2018-05-31T03:13:52.249Z,20.87
2018-05-31T03:16:20.587Z,21.10
2018-05-31T03:18:48.831Z,19.73
2018-05-31T03:21:17.147Z,19.20
2018-05-31T03:23:45.593Z,21.20
2018-05-31T03:26:13.999Z,21.70
2018-05-31T03:28:42.560Z,20.10
2018-05-31T03:31:11.231Z,23.03
2018-05-31T03:33:39.787Z,21.83
2018-05-31T03:36:08.192Z,20.03
2018-05-31T03:38:36.547Z,21.30
2018-05-31T03:41:05.439Z,22.83
2018-05-31T03:43:34.087Z,25.93
2018-05-31T03:46:03.339Z,23.57
2018-05-31T03:48:32.133Z,22.37
2018-05-31T03:51:03.349Z,23.00
2018-05-31T03:53:31.966Z,25.60
2018-05-31T03:56:00.842Z,24.03
2018-05-31T03:58:29.317Z,21.77
2018-05-31T04:00:58.306Z,24.17
2018-05-31T04:03:28.344Z,22.40
2018-05-31T04:05:56.826Z,23.47
2018-05-31T04:08:25.987Z,24.60
2018-05-31T04:10:55.951Z,24.43
2018-05-31T04:13:25.148Z,24.27
2018-05-31T04:15:53.828Z,24.07
2018-05-31T04:18:22.870Z,27.67
2018-05-31T04:20:51.471Z,22.10
2018-05-31T04:23:20.569Z,24.47
2018-05-31T04:25:49.059Z,22.23
2018-05-31T04:28:17.701Z,25.43
2018-05-31T04:30:46.180Z,24.53
2018-05-31T04:33:15.024Z,22.23
2018-05-31T04:35:43.916Z,25.27
2018-05-31T04:38:12.699Z,24.77
2018-05-31T04:40:41.222Z,24.97
2018-05-31T04:43:10.048Z,24.47
2018-05-31T04:45:38.951Z,28.20
2018-05-31T04:48:07.704Z,26.17
2018-05-31T04:50:36.367Z,23.63
2018-05-31T04:53:05.150Z,29.07
2018-05-31T04:55:33.977Z,24.77
2018-05-31T04:58:02.763Z,24.40
2018-05-31T05:00:31.600Z,26.77
2018-05-31T05:03:01.480Z,25.70
2018-05-31T05:05:30.766Z,27.87
2018-05-31T05:07:59.248Z,26.60
2018-05-31T05:10:28.175Z,24.43
2018-05-31T05:12:56.698Z,28.47
2018-05-31T05:15:25.337Z,27.70
2018-05-31T05:17:54.003Z,28.30
2018-05-31T05:20:23.856Z,25.33
2018-05-31T05:22:52.749Z,28.03
2018-05-31T05:25:21.686Z,24.80
2018-05-31T05:27:50.759Z,28.67
2018-05-31T05:30:19.293Z,25.53
2018-05-31T05:32:48.345Z,28.10
2018-05-31T05:35:16.904Z,26.93
2018-05-31T05:37:46.061Z,27.80
2018-05-31T05:40:15.366Z,23.80
2018-05-31T05:42:44.337Z,28.33
2018-05-31T05:45:13.629Z,27.10
2018-05-31T05:47:42.683Z,25.67
2018-05-31T05:50:11.599Z,24.67
2018-05-31T05:52:40.590Z,23.50
2018-05-31T05:55:09.410Z,23.33
2018-05-31T05:57:38.590Z,23.33
2018-05-31T06:00:07.370Z,24.30
2018-05-31T06:02:36.593Z,26.97
2018-05-31T06:05:05.337Z,25.80
2018-05-31T06:07:34.263Z,23.80
2018-05-31T06:10:02.994Z,21.63
2018-05-31T06:12:31.636Z,25.33
2018-05-31T06:15:00.718Z,26.20
2018-05-31T06:17:29.510Z,22.73
2018-05-31T06:19:58.745Z,22.50
2018-05-31T06:22:27.711Z,23.43
2018-05-31T06:24:56.822Z,22.50
2018-05-31T06:27:26.046Z,22.07
2018-05-31T06:29:55.102Z,21.93
2018-05-31T06:32:24.072Z,22.63
2018-05-31T06:34:53.943Z,23.60
2018-05-31T06:37:24.604Z,24.10
2018-05-31T06:39:54.229Z,24.17
2018-05-31T06:42:23.429Z,25.50
2018-05-31T06:44:52.030Z,24.63
2018-05-31T06:47:22.015Z,21.50
2018-05-31T06:49:50.932Z,21.10
2018-05-31T06:52:19.387Z,23.00
2018-05-31T06:54:48.430Z,21.30
2018-05-31T06:57:16.787Z,25.00
2018-05-31T06:59:45.726Z,24.37
2018-05-31T07:02:14.509Z,22.73
2018-05-31T07:04:43.327Z,24.20
2018-05-31T07:07:11.751Z,23.33
2018-05-31T07:09:41.554Z,23.20
2018-05-31T07:12:11.000Z,21.53
2018-05-31T07:14:39.624Z,18.30
2018-05-31T07:17:08.238Z,20.87
2018-05-31T07:19:36.666Z,17.47
2018-05-31T07:22:05.319Z,18.17
2018-05-31T07:24:34.624Z,16.50
2018-05-31T07:27:03.313Z,17.67
2018-05-31T07:29:31.918Z,17.27
2018-05-31T07:32:01.730Z,17.60
2018-05-31T07:34:30.785Z,17.50
2018-05-31T07:36:59.622Z,16.67
2018-05-31T07:39:28.798Z,16.10
2018-05-31T07:41:57.726Z,16.50
2018-05-31T07:44:26.803Z,13.73
2018-05-31T07:46:55.593Z,15.73
2018-05-31T07:49:24.161Z,14.13
2018-05-31T07:51:53.028Z,15.87
2018-05-31T07:54:21.640Z,15.60
2018-05-31T07:56:50.587Z,17.10
2018-05-31T07:59:19.393Z,17.93
2018-05-31T08:01:48.153Z,14.43
2018-05-31T08:04:16.813Z,16.23
2018-05-31T08:06:45.930Z,15.30
2018-05-31T08:09:14.476Z,13.53
2018-05-31T08:11:43.470Z,12.63
2018-05-31T08:14:12.053Z,13.50
2018-05-31T08:16:41.369Z,13.07
2018-05-31T08:19:12.610Z,11.93
2018-05-31T08:21:41.925Z,11.00
2018-05-31T08:24:11.124Z,11.43
2018-05-31T08:26:40.543Z,13.37
2018-05-31T08:29:09.337Z,13.40
2018-05-31T08:31:38.301Z,12.37
2018-05-31T08:34:07.695Z,12.57
2018-05-31T08:36:36.590Z,14.27
2018-05-31T08:39:06.500Z,13.70
2018-05-31T08:41:35.586Z,13.97
2018-05-31T08:44:04.216Z,15.53
2018-05-31T08:46:32.920Z,16.30
2018-05-31T08:49:01.686Z,15.10
2018-05-31T08:51:30.698Z,14.30
2018-05-31T08:53:59.340Z,14.77
2018-05-31T08:56:28.506Z,16.20
2018-05-31T08:58:57.231Z,16.00
2018-05-31T09:01:26.008Z,13.90
2018-05-31T09:03:54.369Z,14.33
2018-05-31T09:06:23.018Z,14.93
2018-05-31T09:08:51.717Z,13.23
2018-05-31T09:11:20.446Z,14.80
2018-05-31T09:13:49.015Z,13.20
2018-05-31T09:16:17.645Z,14.00
2018-05-31T09:18:46.350Z,12.27
2018-05-31T09:21:15.240Z,13.13
2018-05-31T09:23:43.994Z,12.43
2018-05-31T09:26:12.941Z,12.23
2018-05-31T09:28:41.644Z,12.63
2018-05-31T09:31:10.619Z,14.43
2018-05-31T09:33:39.108Z,11.53
2018-05-31T09:36:07.910Z,13.33
2018-05-31T09:38:36.902Z,12.57
2018-05-31T09:41:06.058Z,12.17
2018-05-31T09:43:35.090Z,13.17
2018-05-31T09:46:04.464Z,13.10
2018-05-31T09:48:33.405Z,13.30
2018-05-31T09:51:01.843Z,13.20
2018-05-31T09:53:30.431Z,12.27
2018-05-31T09:55:59.035Z,12.27
2018-05-31T09:58:27.727Z,12.10
2018-05-31T10:00:56.183Z,12.23
2018-05-31T10:03:24.652Z,11.20
2018-05-31T10:05:53.156Z,12.67
2018-05-31T10:08:21.605Z,13.27
2018-05-31T10:10:50.422Z,12.07
2018-05-31T10:13:18.948Z,12.13
2018-05-31T10:15:47.643Z,13.80
2018-05-31T10:18:16.452Z,12.10
2018-05-31T10:20:44.955Z,12.60
2018-05-31T10:23:13.585Z,13.40
2018-05-31T10:25:41.926Z,13.90
2018-05-31T10:28:10.977Z,13.77
2018-05-31T10:30:39.371Z,12.37
2018-05-31T10:33:08.040Z,11.90
2018-05-31T10:35:36.572Z,12.17
2018-05-31T10:38:04.835Z,10.97
2018-05-31T10:40:33.209Z,11.20
2018-05-31T10:43:01.600Z,12.17
2018-05-31T10:45:30.246Z,13.43
2018-05-31T10:47:58.822Z,14.23
2018-05-31T10:50:27.495Z,14.40
2018-05-31T10:52:55.886Z,13.40
2018-05-31T10:55:24.385Z,12.70
2018-05-31T10:57:53.080Z,12.43
2018-05-31T11:00:21.623Z,13.20
2018-05-31T11:02:50.417Z,14.83
2018-05-31T11:05:19.040Z,13.53
2018-05-31T11:07:48.007Z,13.13
2018-05-31T11:10:16.562Z,10.77
2018-05-31T11:12:45.460Z,10.53
2018-05-31T11:15:14.357Z,9.83
2018-05-31T11:17:43.119Z,11.43
2018-05-31T11:20:11.553Z,11.43
2018-05-31T11:22:40.200Z,9.97
2018-05-31T11:25:08.996Z,9.33
2018-05-31T11:27:41.840Z,13.23
2018-05-31T11:30:12.314Z,14.17
2018-05-31T11:32:41.941Z,13.30
2018-05-31T11:35:10.745Z,11.53
2018-05-31T11:37:39.192Z,11.93
2018-05-31T11:40:08.047Z,11.13
2018-05-31T11:42:36.600Z,11.03
2018-05-31T11:45:05.410Z,10.63
2018-05-31T11:47:34.245Z,10.90
2018-05-31T11:50:03.113Z,11.83
2018-05-31T11:52:31.427Z,13.70
2018-05-31T11:55:00.303Z,12.43
2018-05-31T11:57:29.073Z,13.00
2018-05-31T11:59:57.966Z,12.87
2018-05-31T12:02:26.431Z,13.70
2018-05-31T12:04:55.189Z,14.93
2018-05-31T12:07:23.762Z,13.87
2018-05-31T12:09:52.371Z,15.77
2018-05-31T12:12:20.921Z,14.37
2018-05-31T12:14:49.437Z,15.40
2018-05-31T12:17:17.982Z,16.57
2018-05-31T12:19:46.373Z,16.87
2018-05-31T12:22:14.776Z,16.07
2018-05-31T12:24:43.218Z,16.37
2018-05-31T12:27:11.787Z,17.00
2018-05-31T12:29:40.537Z,16.50
2018-05-31T12:32:09.484Z,17.83
2018-05-31T12:34:38.189Z,18.27
2018-05-31T12:37:06.849Z,17.80
2018-05-31T12:39:35.547Z,17.50
2018-05-31T12:42:04.239Z,18.17
2018-05-31T12:44:33.004Z,18.47
2018-05-31T12:47:01.759Z,18.40
2018-05-31T12:49:30.651Z,17.27
2018-05-31T12:51:59.266Z,18.33
2018-05-31T12:54:28.286Z,19.90
2018-05-31T12:56:56.847Z,17.47
2018-05-31T12:59:25.831Z,16.73
2018-05-31T13:01:54.328Z,15.83
2018-05-31T13:04:23.287Z,16.30
2018-05-31T13:06:51.811Z,17.77
2018-05-31T13:09:20.712Z,18.67
2018-05-31T13:11:49.224Z,18.63
2018-05-31T13:14:18.032Z,18.20
2018-05-31T13:16:46.659Z,18.50
2018-05-31T13:19:15.918Z,19.90
2018-05-31T13:21:44.537Z,18.70
2018-05-31T13:24:13.120Z,18.23
2018-05-31T13:26:41.490Z,18.67
2018-05-31T13:29:10.500Z,18.37
2018-05-31T13:31:39.420Z,18.07
2018-05-31T13:34:08.121Z,18.83
2018-05-31T13:36:36.741Z,18.33
2018-05-31T13:39:06.702Z,18.47
2018-05-31T13:41:36.025Z,17.93
2018-05-31T13:44:04.544Z,19.93
2018-05-31T13:46:33.255Z,18.17
2018-05-31T13:49:01.901Z,18.30
2018-05-31T13:51:31.329Z,21.40
2018-05-31T13:54:00.276Z,19.37
2018-05-31T13:56:29.120Z,20.77
2018-05-31T13:58:59.229Z,20.27
2018-05-31T14:01:28.225Z,18.00
2018-05-31T14:03:56.824Z,19.23
2018-05-31T14:06:25.441Z,16.57
2018-05-31T14:08:54.090Z,19.93
2018-05-31T14:11:22.969Z,18.80
2018-05-31T14:13:53.035Z,19.00
2018-05-31T14:16:21.875Z,16.10
2018-05-31T14:18:51.337Z,15.37
2018-05-31T14:21:20.621Z,14.43
2018-05-31T14:23:49.241Z,14.63
2018-05-31T14:26:17.923Z,16.43
2018-05-31T14:28:46.524Z,16.80
2018-05-31T14:31:15.331Z,15.10
2018-05-31T14:33:44.484Z,15.43
2018-05-31T14:36:13.642Z,16.27
2018-05-31T14:38:42.221Z,16.60
2018-05-31T14:41:10.863Z,14.67
2018-05-31T14:43:39.679Z,13.60
2018-05-31T14:46:09.004Z,12.60
2018-05-31T14:48:38.043Z,11.90
2018-05-31T14:51:08.744Z,11.63
2018-05-31T14:53:38.155Z,11.50
2018-05-31T14:56:06.762Z,11.67
2018-05-31T14:58:36.071Z,13.17
2018-05-31T15:01:05.084Z,12.47
2018-05-31T15:03:38.111Z,11.93
2018-05-31T15:06:07.004Z,11.03
2018-05-31T15:08:36.063Z,12.03
2018-05-31T15:11:05.426Z,12.10
2018-05-31T15:13:35.540Z,12.53
2018-05-31T15:16:05.466Z,13.27
2018-05-31T15:18:34.426Z,10.93
2018-05-31T15:21:04.008Z,9.60
2018-05-31T15:23:38.246Z,9.83
2018-05-31T15:26:06.945Z,12.17
2018-05-31T15:28:55.700Z,12.93
2018-05-31T15:31:31.905Z,10.17
2018-05-31T15:34:03.371Z,12.40
2018-05-31T15:36:32.839Z,12.30
2018-05-31T15:39:01.420Z,11.17
2018-05-31T15:41:30.418Z,10.53
2018-05-31T15:43:59.171Z,10.60
2018-05-31T15:46:28.173Z,11.37
2018-05-31T15:48:56.893Z,11.30
2018-05-31T15:51:26.496Z,11.53
2018-05-31T15:53:55.405Z,11.20
2018-05-31T15:56:24.551Z,10.10
2018-05-31T15:58:55.962Z,12.17
2018-05-31T16:01:25.491Z,10.33
2018-05-31T16:03:54.705Z,9.17
2018-05-31T16:06:26.392Z,10.10
2018-05-31T16:08:55.797Z,10.40
2018-05-31T16:11:24.763Z,9.97
2018-05-31T16:13:54.099Z,9.80
2018-05-31T16:16:22.751Z,9.80
2018-05-31T16:18:53.885Z,10.30
2018-05-31T16:21:25.947Z,10.00
2018-05-31T16:23:56.945Z,10.73
2018-05-31T16:26:26.221Z,11.60
2018-05-31T16:28:55.186Z,11.97
2018-05-31T16:31:24.533Z,11.80
2018-05-31T16:33:53.585Z,12.80
2018-05-31T16:36:25.255Z,13.03
2018-05-31T16:38:57.195Z,12.50
2018-05-31T16:41:27.105Z,15.80
2018-05-31T16:43:56.450Z,14.80
2018-05-31T16:46:25.465Z,15.17
2018-05-31T16:48:54.711Z,16.33
2018-05-31T16:51:25.705Z,16.17
2018-05-31T16:53:54.791Z,16.63
2018-05-31T16:56:24.422Z,18.33
2018-05-31T16:58:54.624Z,17.00
2018-05-31T17:01:24.040Z,19.73
2018-05-31T17:03:56.701Z,20.17
2018-05-31T17:06:28.758Z,18.93
2018-05-31T17:09:00.187Z,19.47
2018-05-31T17:11:29.359Z,19.87
2018-05-31T17:13:59.697Z,20.40
2018-05-31T17:16:29.360Z,18.87
2018-05-31T17:18:59.974Z,19.80
2018-05-31T17:21:29.709Z,19.93
2018-05-31T17:23:59.541Z,20.73
2018-05-31T17:26:30.689Z,19.67
2018-05-31T17:29:01.096Z,19.33
2018-05-31T17:31:30.434Z,20.70
2018-05-31T17:33:59.808Z,18.47
2018-05-31T17:36:29.437Z,18.23
2018-05-31T17:38:59.398Z,18.40
2018-05-31T17:41:28.994Z,19.47
2018-05-31T17:43:59.320Z,18.57
2018-05-31T17:46:30.361Z,20.60
2018-05-31T17:49:01.592Z,18.20
2018-05-31T17:51:31.407Z,17.60
2018-05-31T17:54:01.372Z,17.97
2018-05-31T17:56:30.612Z,18.90
2018-05-31T17:58:59.960Z,20.07
2018-05-31T18:01:29.813Z,21.03
2018-05-31T18:04:02.894Z,18.87
2018-05-31T18:06:38.627Z,19.60
2018-05-31T18:09:12.174Z,18.97
2018-05-31T18:11:44.555Z,17.97
2018-05-31T18:14:16.900Z,17.80
2018-05-31T18:16:49.646Z,19.57
2018-05-31T18:19:19.772Z,18.50
2018-05-31T18:21:49.480Z,19.23
2018-05-31T18:24:19.039Z,18.83
2018-05-31T18:26:48.934Z,18.33
2018-05-31T18:29:18.260Z,18.30
2018-05-31T18:31:47.268Z,18.57
2018-05-31T18:34:16.891Z,19.10
2018-05-31T18:36:45.491Z,18.10
2018-05-31T18:39:14.221Z,17.97
2018-05-31T18:41:43.320Z,17.70
2018-05-31T18:44:12.067Z,19.37
2018-05-31T18:46:41.403Z,18.57
2018-05-31T18:49:10.060Z,19.00
2018-05-31T18:51:38.755Z,17.87
2018-05-31T18:54:07.341Z,18.27
2018-05-31T18:56:36.059Z,20.90
2018-05-31T18:59:05.211Z,22.27
2018-05-31T19:01:34.068Z,22.33
2018-05-31T19:04:03.009Z,21.57
2018-05-31T19:06:31.727Z,21.33
2018-05-31T19:09:00.164Z,22.07
2018-05-31T19:11:28.708Z,20.40
2018-05-31T19:13:58.240Z,21.93
2018-05-31T19:16:26.465Z,21.87
2018-05-31T19:19:00.587Z,21.43
2018-05-31T19:21:28.907Z,22.07
2018-05-31T19:23:57.178Z,21.17
2018-05-31T19:26:25.356Z,22.63
2018-05-31T19:28:53.584Z,20.47
2018-05-31T19:31:21.807Z,22.20
2018-05-31T19:33:49.946Z,22.23
2018-05-31T19:36:23.590Z,21.67
2018-05-31T19:38:51.774Z,21.53
2018-05-31T19:41:19.857Z,22.23
2018-05-31T19:43:53.790Z,20.73
2018-05-31T19:46:21.960Z,22.07
2018-05-31T19:48:50.056Z,21.87
2018-05-31T19:51:23.711Z,21.10
2018-05-31T19:53:51.818Z,23.13
2018-05-31T19:56:19.935Z,23.27
2018-05-31T19:58:53.582Z,23.13
2018-05-31T20:01:27.695Z,23.43
2018-05-31T20:03:56.134Z,24.80
2018-05-31T20:06:24.344Z,21.87
2018-05-31T20:08:52.489Z,21.03
2018-05-31T20:11:20.917Z,22.87
2018-05-31T20:13:49.379Z,21.80
2018-05-31T20:16:17.582Z,22.33
2018-05-31T20:18:48.853Z,20.43
2018-05-31T20:21:17.241Z,21.77
2018-05-31T20:23:45.941Z,22.77
2018-05-31T20:26:14.224Z,22.20
2018-05-31T20:28:42.480Z,21.97
2018-05-31T20:31:11.056Z,22.00
2018-05-31T20:33:39.484Z,21.97
2018-05-31T20:36:07.902Z,22.13
2018-05-31T20:38:36.349Z,22.80
2018-05-31T20:41:04.712Z,23.90
2018-05-31T20:43:32.976Z,24.20
2018-05-31T20:46:01.649Z,26.83
2018-05-31T20:48:30.464Z,24.80
2018-05-31T20:51:05.732Z,25.13
2018-05-31T20:53:37.069Z,26.00
2018-05-31T20:56:05.868Z,23.90
2018-05-31T20:58:34.363Z,24.37
2018-05-31T21:01:03.503Z,25.10
2018-05-31T21:03:32.212Z,24.43
2018-05-31T21:06:01.011Z,24.43
2018-05-31T21:08:29.325Z,24.27
2018-05-31T21:10:57.633Z,23.23
2018-05-31T21:13:27.930Z,24.43
2018-05-31T21:15:58.206Z,25.90
2018-05-31T21:18:26.403Z,23.30
2018-05-31T21:20:55.016Z,23.60
2018-05-31T21:23:23.264Z,23.93
2018-05-31T21:25:51.408Z,23.27
2018-05-31T21:28:19.773Z,26.10
2018-05-31T21:30:48.101Z,26.23
2018-05-31T21:33:16.346Z,27.77
2018-05-31T21:35:44.778Z,28.80
2018-05-31T21:38:13.025Z,27.33
2018-05-31T21:40:41.718Z,28.50
2018-05-31T21:43:10.137Z,29.90
2018-05-31T21:45:38.559Z,29.50
2018-05-31T21:48:06.886Z,26.40
2018-05-31T21:50:35.051Z,31.63
2018-05-31T21:53:03.385Z,28.80
2018-05-31T21:55:31.656Z,29.57
2018-05-31T21:58:00.110Z,27.93
2018-05-31T22:00:32.021Z,25.97
2018-05-31T22:03:00.454Z,28.77
2018-05-31T22:05:28.819Z,28.40
2018-05-31T22:07:57.369Z,29.83
2018-05-31T22:10:25.590Z,30.77
2018-05-31T22:12:54.903Z,33.97
2018-05-31T22:15:23.801Z,32.90
2018-05-31T22:17:52.083Z,30.10
2018-05-31T22:20:20.516Z,29.13
2018-05-31T22:22:48.944Z,25.20
2018-05-31T22:25:17.288Z,21.50
2018-05-31T22:27:45.484Z,19.03
2018-05-31T22:30:18.594Z,18.10
2018-05-31T22:32:47.051Z,17.20
2018-05-31T22:35:15.500Z,15.30
2018-05-31T22:37:43.960Z,15.33
2018-05-31T22:40:12.200Z,13.40
2018-05-31T22:42:40.608Z,11.57
2018-05-31T22:45:08.991Z,11.40
2018-05-31T22:47:37.171Z,10.63
2018-05-31T22:50:05.579Z,11.40
2018-05-31T22:52:34.041Z,8.63
2018-05-31T22:55:02.273Z,8.77
2018-05-31T22:57:30.506Z,7.80
2018-05-31T22:59:58.850Z,7.67
2018-05-31T23:02:27.056Z,8.70
2018-05-31T23:04:55.438Z,7.97
2018-05-31T23:07:23.663Z,8.10
2018-05-31T23:09:51.856Z,8.00
2018-05-31T23:12:20.345Z,7.43
2018-05-31T23:14:48.530Z,8.03
2018-05-31T23:17:16.678Z,9.40
2018-05-31T23:19:44.917Z,7.83
2018-05-31T23:22:13.085Z,8.43
2018-05-31T23:24:41.338Z,7.67
2018-05-31T23:27:09.535Z,8.47
2018-05-31T23:29:37.853Z,8.30
2018-05-31T23:32:06.218Z,7.97
2018-05-31T23:34:34.487Z,7.90
2018-05-31T23:37:02.696Z,8.30
2018-05-31T23:39:31.263Z,8.17
2018-05-31T23:41:59.530Z,9.97
2018-05-31T23:44:28.095Z,9.97
2018-05-31T23:46:56.371Z,9.47
2018-05-31T23:49:25.153Z,11.50
2018-05-31T23:51:53.518Z,10.93
2018-05-31T23:54:21.652Z,12.27
2018-05-31T23:56:49.870Z,12.20
2018-05-31T23:59:18.182Z,11.40
